Time;durP1;ratioP1;P1;durP2;ratioP2;P2;SDS_P1;SDS_P2;PMS_P1;PMS_P2;Temp;Humidity;BMP_temperature;BMP_pressure;BME280_temperature;BME280_humidity;BME280_pressure;Samples;Min_cycle;Max_cycle;Signal;HPM_P1;HPM_P2
2023/03/31 00:02:21;;;;;;;0.93;0.30;;;10.40;99.90;;;;;;5099022;28;20043;-88
2023/03/31 00:04:53;;;;;;;0.30;0.30;;;10.40;99.90;;;;;;5117072;28;20122;-80
2023/03/31 00:07:22;;;;;;;0.17;0.10;;;10.50;99.90;;;;;;5117061;28;20126;-87
2023/03/31 00:09:48;;;;;;;1.98;0.10;;;10.50;99.90;;;;;;5099136;28;20048;-81
2023/03/31 00:12:15;;;;;;;1.60;0.50;;;10.50;99.90;;;;;;5098926;28;20509;-80
2023/03/31 00:14:41;;;;;;;;;;;10.40;99.90;;;;;;5117141;28;20283;-81
2023/03/31 00:17:08;;;;;;;0.00;0.00;;;10.40;99.90;;;;;;5098660;28;20421;-80
2023/03/31 00:19:33;;;;;;;;;;;10.50;99.90;;;;;;5098942;28;20401;-80
2023/03/31 00:22:04;;;;;;;0.10;0.10;;;10.40;99.90;;;;;;5098881;28;19920;-80
2023/03/31 00:24:31;;;;;;;1.55;0.25;;;10.40;99.90;;;;;;5099218;28;20402;-82
2023/03/31 00:27:02;;;;;;;0.00;0.00;;;10.40;99.90;;;;;;5098062;28;20486;-81
2023/03/31 00:29:28;;;;;;;0.10;0.10;;;10.30;99.90;;;;;;5097951;28;20058;-80
2023/03/31 00:31:54;;;;;;;0.00;0.00;;;10.30;99.90;;;;;;5116802;28;20047;-80
2023/03/31 00:34:20;;;;;;;0.22;0.20;;;10.30;99.90;;;;;;5116475;28;20083;-80
2023/03/31 00:36:46;;;;;;;0.20;0.20;;;10.30;99.90;;;;;;5116286;28;20047;-80
2023/03/31 00:39:14;;;;;;;1.60;0.30;;;10.20;99.90;;;;;;5098690;28;20113;-80
2023/03/31 00:41:40;;;;;;;7.43;0.57;;;10.20;99.90;;;;;;5098228;28;20051;-80
2023/03/31 00:44:13;;;;;;;0.10;0.10;;;10.10;99.90;;;;;;5098406;28;20470;-80
2023/03/31 00:46:53;;;;;;;0.88;0.28;;;10.10;99.90;;;;;;5116160;28;20118;-80
2023/03/31 00:49:22;;;;;;;0.00;0.00;;;10.00;99.90;;;;;;5116239;28;20040;-80
2023/03/31 00:51:51;;;;;;;0.22;0.20;;;10.00;99.90;;;;;;5114669;28;20059;-80
2023/03/31 00:54:18;;;;;;;0.35;0.10;;;10.00;99.90;;;;;;5116130;28;20051;-80
2023/03/31 00:56:48;;;;;;;0.00;0.00;;;9.90;99.90;;;;;;5097828;28;20048;-80
2023/03/31 00:59:14;;;;;;;0.47;0.47;;;9.90;99.90;;;;;;5115478;28;20081;-80
2023/03/31 01:01:44;;;;;;;0.00;0.00;;;9.80;99.90;;;;;;5097742;28;20044;-80
2023/03/31 01:04:13;;;;;;;0.20;0.20;;;9.80;99.90;;;;;;5097489;28;20477;-80
2023/03/31 01:06:51;;;;;;;0.15;0.15;;;9.70;99.90;;;;;;5115565;28;20050;-80
2023/03/31 01:09:17;;;;;;;0.00;0.00;;;9.70;99.90;;;;;;5097867;28;20051;-80
2023/03/31 01:11:45;;;;;;;0.10;0.10;;;9.60;99.90;;;;;;5114671;28;20066;-80
2023/03/31 01:14:11;;;;;;;0.17;0.17;;;9.60;99.90;;;;;;5081537;28;20058;-80
2023/03/31 01:16:38;;;;;;;0.20;0.20;;;9.50;99.90;;;;;;5080371;28;20482;-80
2023/03/31 01:19:11;;;;;;;;;;;9.50;99.90;;;;;;5081395;28;20474;-80
2023/03/31 01:21:50;;;;;;;0.15;0.03;;;9.40;99.90;;;;;;5115589;28;20292;-81
2023/03/31 01:24:34;;;;;;;0.25;0.20;;;9.40;99.90;;;;;;5097442;28;20486;-80
2023/03/31 01:27:15;;;;;;;0.20;0.20;;;9.30;99.90;;;;;;5115610;28;20051;-80
2023/03/31 01:29:41;;;;;;;0.00;0.00;;;9.30;99.90;;;;;;5114495;28;20051;-81
2023/03/31 01:32:39;;;;;;;0.43;0.28;;;9.20;99.90;;;;;;5097353;28;20051;-80
2023/03/31 01:35:30;;;;;;;0.10;0.10;;;9.20;99.90;;;;;;5080747;28;20386;-80
2023/03/31 01:38:23;;;;;;;0.08;0.08;;;9.20;99.90;;;;;;5096906;28;20488;-80
2023/03/31 01:41:16;;;;;;;0.30;0.10;;;9.20;99.90;;;;;;5097135;28;20192;-80
2023/03/31 01:44:11;;;;;;;0.20;0.20;;;9.10;99.90;;;;;;5115025;28;20051;-81
2023/03/31 01:46:40;;;;;;;1.30;0.10;;;9.10;99.90;;;;;;5099160;28;20046;-88
2023/03/31 01:49:44;;;;;;;0.08;0.08;;;9.10;99.90;;;;;;5097149;28;20043;-80
2023/03/31 01:52:57;;;;;;;0.30;0.30;;;9.00;99.90;;;;;;5094636;28;20117;-80
2023/03/31 01:55:37;;;;;;;1.20;0.30;;;9.00;99.90;;;;;;5112099;28;20064;-81
2023/03/31 01:58:25;;;;;;;0.93;0.77;;;9.00;99.90;;;;;;5080115;28;20382;-80
2023/03/31 02:01:16;;;;;;;0.10;0.10;;;9.00;99.90;;;;;;5096482;28;20059;-81
2023/03/31 02:03:55;;;;;;;0.17;0.10;;;9.00;99.90;;;;;;5114344;28;20035;-80
2023/03/31 02:06:25;;;;;;;0.00;0.00;;;9.00;99.90;;;;;;5080349;28;20043;-80
2023/03/31 02:08:57;;;;;;;0.10;0.10;;;9.00;99.90;;;;;;5114179;28;20052;-80
2023/03/31 02:11:24;;;;;;;0.30;0.30;;;9.00;99.90;;;;;;5096096;28;20156;-80
2023/03/31 02:13:54;;;;;;;4.07;0.30;;;9.00;99.90;;;;;;5114562;28;20144;-80
2023/03/31 02:16:24;;;;;;;0.82;0.55;;;9.00;99.90;;;;;;5114423;28;20240;-80
2023/03/31 02:19:01;;;;;;;0.00;0.00;;;9.00;99.90;;;;;;5079469;28;20066;-81
2023/03/31 02:21:32;;;;;;;0.05;0.03;;;9.00;99.90;;;;;;5114814;28;20043;-80
2023/03/31 02:24:01;;;;;;;0.00;0.00;;;9.00;99.90;;;;;;5114350;28;20040;-80
2023/03/31 02:26:36;;;;;;;1.65;0.52;;;9.00;99.90;;;;;;5114434;28;20082;-80
2023/03/31 02:29:02;;;;;;;0.50;0.43;;;9.00;99.90;;;;;;5113701;28;20055;-80
2023/03/31 02:31:48;;;;;;;0.32;0.10;;;9.00;99.90;;;;;;5096328;28;20096;-80
2023/03/31 02:34:14;;;;;;;0.15;0.10;;;9.00;99.90;;;;;;5095834;28;20043;-80
2023/03/31 02:36:42;;;;;;;0.22;0.10;;;9.00;99.90;;;;;;5079295;28;20039;-80
2023/03/31 02:39:15;;;;;;;0.00;0.00;;;9.00;99.90;;;;;;5095951;28;20083;-80
2023/03/31 02:41:42;;;;;;;0.10;0.10;;;9.00;99.90;;;;;;5096377;28;20048;-80
2023/03/31 02:44:09;;;;;;;0.43;0.43;;;9.00;99.90;;;;;;5095971;28;20047;-80
2023/03/31 02:46:35;;;;;;;0.52;0.20;;;9.00;99.90;;;;;;5112579;28;20494;-80
2023/03/31 02:49:05;;;;;;;0.10;0.10;;;9.00;99.90;;;;;;5095585;28;20047;-80
2023/03/31 02:51:48;;;;;;;0.00;0.00;;;9.00;99.90;;;;;;5079051;28;20112;-80
2023/03/31 02:54:42;;;;;;;1.00;0.20;;;9.00;99.90;;;;;;5113981;28;20401;-80
2023/03/31 02:57:26;;;;;;;0.40;0.10;;;9.00;99.90;;;;;;5113943;28;20050;-80
2023/03/31 03:00:24;;;;;;;0.30;0.25;;;9.00;99.90;;;;;;5095684;28;20043;-80
2023/03/31 03:03:31;;;;;;;0.05;0.05;;;9.00;99.90;;;;;;5096370;28;20055;-81
2023/03/31 03:05:57;;;;;;;0.25;0.10;;;9.00;99.90;;;;;;5079579;28;20051;-80
2023/03/31 03:08:26;;;;;;;0.10;0.10;;;9.10;99.90;;;;;;5113689;28;20066;-80
2023/03/31 03:10:59;;;;;;;1.15;0.20;;;9.10;99.90;;;;;;5078788;28;20051;-80
2023/03/31 03:13:31;;;;;;;0.25;0.20;;;9.10;99.90;;;;;;5113766;28;20051;-80
2023/03/31 03:16:38;;;;;;;0.30;0.20;;;9.10;99.90;;;;;;5095300;28;20044;-80
2023/03/31 03:19:05;;;;;;;0.05;0.05;;;9.10;99.90;;;;;;5107593;28;20060;-80
2023/03/31 03:21:32;;;;;;;0.55;0.50;;;9.10;99.90;;;;;;5099396;28;20044;-80
2023/03/31 03:23:59;;;;;;;0.10;0.10;;;9.10;99.90;;;;;;5101744;28;20082;-80
2023/03/31 03:26:26;;;;;;;;;;;9.10;99.90;;;;;;5120877;28;20123;-80
2023/03/31 03:28:54;;;;;;;0.63;0.40;;;9.20;99.90;;;;;;5101854;28;19966;-81
2023/03/31 03:31:22;;;;;;;0.10;0.10;;;9.20;99.90;;;;;;5102425;28;20047;-80
2023/03/31 03:33:49;;;;;;;0.35;0.35;;;9.20;99.90;;;;;;5120304;28;20055;-80
2023/03/31 03:36:14;;;;;;;0.00;0.00;;;9.20;99.90;;;;;;5120191;28;20085;-80
2023/03/31 03:38:41;;;;;;;0.20;0.17;;;9.20;99.90;;;;;;5120288;28;20074;-81
2023/03/31 03:41:06;;;;;;;0.10;0.10;;;9.20;99.90;;;;;;5101382;28;20147;-81
2023/03/31 03:43:32;;;;;;;0.77;0.30;;;9.20;99.90;;;;;;5120063;28;20494;-80
2023/03/31 03:45:58;;;;;;;0.20;0.20;;;9.20;99.90;;;;;;5101955;28;20054;-80
2023/03/31 03:48:23;;;;;;;0.33;0.30;;;9.20;99.90;;;;;;5120289;28;20065;-80
2023/03/31 03:50:49;;;;;;;0.77;0.10;;;9.30;99.90;;;;;;5085268;28;20485;-80
2023/03/31 03:53:15;;;;;;;3.33;0.40;;;9.30;99.90;;;;;;5084613;28;20537;-80
2023/03/31 03:55:41;;;;;;;0.57;0.57;;;9.30;99.90;;;;;;5101988;28;20474;-80
2023/03/31 03:58:06;;;;;;;0.87;0.50;;;9.30;99.90;;;;;;5101730;28;20047;-80
2023/03/31 04:00:32;;;;;;;0.20;0.20;;;9.30;99.90;;;;;;5119742;28;20082;-80
2023/03/31 04:02:58;;;;;;;0.15;0.10;;;9.30;99.90;;;;;;5119700;28;20043;-80
2023/03/31 04:05:24;;;;;;;0.00;0.00;;;9.30;99.90;;;;;;5102202;28;20100;-80
2023/03/31 04:07:49;;;;;;;1.50;0.67;;;9.30;99.90;;;;;;5119966;28;20474;-79
2023/03/31 04:10:15;;;;;;;0.20;0.10;;;9.30;99.90;;;;;;5084807;28;20054;-79
2023/03/31 04:12:41;;;;;;;1.00;0.30;;;9.30;99.90;;;;;;5119929;28;20055;-79
2023/03/31 04:15:07;;;;;;;4.20;1.23;;;9.30;99.90;;;;;;5101736;28;20096;-79
2023/03/31 04:17:33;;;;;;;0.77;0.20;;;9.30;99.90;;;;;;5119727;28;20043;-79
2023/03/31 04:20:10;;;;;;;2.03;0.17;;;9.30;99.90;;;;;;5119615;28;20051;-80
2023/03/31 04:22:39;;;;;;;0.22;0.22;;;9.30;99.90;;;;;;5101847;28;20155;-79
2023/03/31 04:25:15;;;;;;;1.02;0.52;;;9.30;99.90;;;;;;5119530;28;20052;-79
2023/03/31 04:27:49;;;;;;;0.08;0.08;;;9.30;99.90;;;;;;5085134;28;20051;-79
2023/03/31 04:30:22;;;;;;;0.40;0.40;;;9.30;99.90;;;;;;5119316;28;20112;-79
2023/03/31 04:32:57;;;;;;;0.57;0.57;;;9.30;99.90;;;;;;5117214;28;20062;-79
2023/03/31 04:35:26;;;;;;;0.20;0.20;;;9.30;99.90;;;;;;5081538;28;20063;-79
2023/03/31 04:37:59;;;;;;;0.90;0.45;;;9.30;99.90;;;;;;5098179;28;20046;-79
2023/03/31 04:40:25;;;;;;;0.10;0.10;;;9.30;99.90;;;;;;5116430;28;20043;-79
2023/03/31 04:42:51;;;;;;;0.95;0.30;;;9.20;99.90;;;;;;5116084;28;20100;-79
2023/03/31 04:45:17;;;;;;;0.10;0.10;;;9.20;99.90;;;;;;5116253;28;20047;-80
2023/03/31 04:47:43;;;;;;;0.27;0.20;;;9.20;99.90;;;;;;5116346;28;20110;-79
2023/03/31 04:50:09;;;;;;;0.20;0.20;;;9.20;99.90;;;;;;5116096;28;20373;-80
2023/03/31 04:52:36;;;;;;;0.32;0.10;;;9.20;99.90;;;;;;5116239;28;20055;-79
2023/03/31 04:55:02;;;;;;;0.10;0.00;;;9.20;99.90;;;;;;5097958;28;20039;-89
2023/03/31 04:57:28;;;;;;;1.27;0.50;;;9.20;99.90;;;;;;5115833;28;20040;-79
2023/03/31 04:59:54;;;;;;;0.10;0.10;;;9.20;99.90;;;;;;5116020;28;20093;-80
2023/03/31 05:02:22;;;;;;;0.20;0.20;;;9.20;99.90;;;;;;5115328;28;20048;-80
2023/03/31 05:04:49;;;;;;;0.20;0.20;;;9.20;99.90;;;;;;5115722;28;20108;-79
2023/03/31 05:07:16;;;;;;;0.40;0.13;;;9.20;99.90;;;;;;5115994;28;20077;-79
2023/03/31 05:09:42;;;;;;;1.17;0.73;;;9.20;99.90;;;;;;5115852;28;20406;-81
2023/03/31 05:12:08;;;;;;;0.00;0.00;;;9.30;99.90;;;;;;5097649;28;20044;-79
2023/03/31 05:14:33;;;;;;;0.20;0.20;;;9.30;99.90;;;;;;5115639;28;20047;-78
2023/03/31 05:16:59;;;;;;;0.57;0.27;;;9.30;99.90;;;;;;5115338;28;20036;-79
2023/03/31 05:19:25;;;;;;;0.20;0.20;;;9.30;99.90;;;;;;5115326;28;20200;-79
2023/03/31 05:21:51;;;;;;;0.57;0.27;;;9.30;99.90;;;;;;5115580;28;20138;-79
2023/03/31 05:24:17;;;;;;;0.10;0.10;;;9.30;99.90;;;;;;5115373;28;20434;-79
2023/03/31 05:26:48;;;;;;;0.00;0.00;;;9.30;99.90;;;;;;5115574;28;20191;-79
2023/03/31 05:29:15;;;;;;;2.65;0.55;;;9.30;99.90;;;;;;5115016;28;20082;-79
2023/03/31 05:31:41;;;;;;;0.13;0.10;;;9.20;99.90;;;;;;5115578;28;20059;-79
2023/03/31 05:34:07;;;;;;;0.00;0.00;;;9.20;99.90;;;;;;5097160;28;20048;-86
2023/03/31 05:36:33;;;;;;;0.23;0.10;;;9.20;99.90;;;;;;5097253;28;20308;-79
2023/03/31 05:38:59;;;;;;;0.75;0.20;;;9.20;99.90;;;;;;5097458;28;20044;-79
2023/03/31 05:41:25;;;;;;;0.23;0.23;;;9.20;99.90;;;;;;5097034;28;20046;-80
2023/03/31 05:43:51;;;;;;;1.13;0.20;;;9.20;99.90;;;;;;5114743;28;20055;-79
2023/03/31 05:46:17;;;;;;;0.10;0.10;;;9.20;99.90;;;;;;5096475;28;20044;-79
2023/03/31 05:48:43;;;;;;;0.00;0.00;;;9.20;99.90;;;;;;5115134;28;20043;-79
2023/03/31 05:51:09;;;;;;;0.28;0.28;;;9.20;99.90;;;;;;5114882;28;20126;-87
2023/03/31 05:53:35;;;;;;;0.28;0.15;;;9.20;99.90;;;;;;5114948;28;20151;-82
2023/03/31 05:56:03;;;;;;;0.30;0.30;;;9.20;99.90;;;;;;5081509;28;20497;-80
2023/03/31 05:58:29;;;;;;;0.08;0.08;;;9.20;99.90;;;;;;5114559;28;20040;-81
2023/03/31 06:01:22;;;;;;;0.73;0.43;;;9.20;99.90;;;;;;5079600;28;20048;-81
2023/03/31 06:03:48;;;;;;;0.43;0.22;;;9.20;99.90;;;;;;5112587;28;20289;-81
2023/03/31 06:06:15;;;;;;;0.85;0.43;;;9.20;99.90;;;;;;5096137;28;20051;-82
2023/03/31 06:08:41;;;;;;;;;;;9.20;99.90;;;;;;5096858;28;20051;-81
2023/03/31 06:11:09;;;;;;;0.10;0.10;;;9.20;99.90;;;;;;5096124;28;19919;-81
2023/03/31 06:13:36;;;;;;;0.20;0.20;;;9.20;99.90;;;;;;5113883;28;20054;-82
2023/03/31 06:16:03;;;;;;;0.13;0.13;;;9.20;99.90;;;;;;5096221;28;20102;-81
2023/03/31 06:18:30;;;;;;;0.08;0.08;;;9.20;99.90;;;;;;5095280;28;20075;-82
2023/03/31 06:20:56;;;;;;;0.35;0.22;;;9.20;99.90;;;;;;5079033;28;20062;-82
2023/03/31 06:23:23;;;;;;;0.28;0.20;;;9.20;99.90;;;;;;5113658;28;20044;-81
2023/03/31 06:25:49;;;;;;;0.70;0.20;;;9.10;99.90;;;;;;5096124;28;20497;-81
2023/03/31 06:28:15;;;;;;;0.08;0.00;;;9.10;99.90;;;;;;5114005;28;20046;-82
2023/03/31 06:30:41;;;;;;;1.17;0.52;;;9.20;99.90;;;;;;5095888;28;20482;-81
2023/03/31 06:33:07;;;;;;;0.20;0.20;;;9.10;99.90;;;;;;5114479;28;20047;-80
2023/03/31 06:35:36;;;;;;;0.00;0.00;;;9.10;99.90;;;;;;5095652;28;20643;-81
2023/03/31 06:38:01;;;;;;;0.22;0.22;;;9.10;99.90;;;;;;5079270;28;20051;-81
2023/03/31 06:40:27;;;;;;;0.20;0.20;;;9.10;99.90;;;;;;5113179;28;20039;-81
2023/03/31 06:42:53;;;;;;;0.40;0.10;;;9.10;99.90;;;;;;5113450;28;20055;-81
2023/03/31 06:45:18;;;;;;;0.20;0.20;;;9.10;99.90;;;;;;5095209;28;20043;-84
2023/03/31 06:47:44;;;;;;;0.20;0.20;;;9.20;99.90;;;;;;5113330;28;20092;-82
2023/03/31 06:50:10;;;;;;;0.20;0.10;;;9.10;99.90;;;;;;5095091;28;20554;-81
2023/03/31 06:52:36;;;;;;;0.10;0.10;;;9.10;99.90;;;;;;5095033;28;20219;-81
2023/03/31 06:55:02;;;;;;;0.33;0.33;;;9.10;99.90;;;;;;5095440;28;20050;-81
2023/03/31 06:57:28;;;;;;;0.05;0.05;;;9.20;99.90;;;;;;5084661;28;20090;-81
2023/03/31 06:59:54;;;;;;;1.17;0.30;;;9.20;99.90;;;;;;5078771;28;20071;-80
2023/03/31 07:02:20;;;;;;;0.17;0.17;;;9.20;99.90;;;;;;5095038;28;20040;-81
2023/03/31 07:04:46;;;;;;;0.57;0.13;;;9.20;99.90;;;;;;5113106;28;20047;-80
2023/03/31 07:07:12;;;;;;;0.27;0.27;;;9.20;99.90;;;;;;5095235;28;20047;-83
2023/03/31 07:09:37;;;;;;;0.30;0.30;;;9.20;99.90;;;;;;5113136;28;20755;-82
2023/03/31 07:12:04;;;;;;;0.00;0.00;;;9.20;99.90;;;;;;5078290;28;20051;-84
2023/03/31 07:14:32;;;;;;;0.22;0.22;;;9.20;99.90;;;;;;5112883;28;20051;-83
2023/03/31 07:16:58;;;;;;;0.22;0.22;;;9.20;99.90;;;;;;5094201;28;20478;-81
2023/03/31 07:19:24;;;;;;;0.98;0.50;;;9.20;99.90;;;;;;5112282;28;20063;-83
2023/03/31 07:21:51;;;;;;;0.13;0.13;;;9.20;99.90;;;;;;5112291;28;20397;-83
2023/03/31 07:24:17;;;;;;;0.20;0.10;;;9.20;99.90;;;;;;5078097;28;20277;-81
2023/03/31 07:26:43;;;;;;;0.10;0.10;;;9.10;99.90;;;;;;5077824;28;20051;-81
2023/03/31 07:29:09;;;;;;;0.03;0.03;;;9.10;99.90;;;;;;5094487;28;20138;-81
2023/03/31 07:31:34;;;;;;;0.20;0.10;;;9.10;99.90;;;;;;5094783;28;20055;-81
2023/03/31 07:34:02;;;;;;;0.00;0.00;;;9.10;99.90;;;;;;5095219;28;20048;-81
2023/03/31 07:36:27;;;;;;;0.00;0.00;;;9.10;99.90;;;;;;5094342;28;20058;-80
2023/03/31 07:38:53;;;;;;;1.20;0.30;;;9.10;99.90;;;;;;5094554;28;20052;-81
2023/03/31 07:41:20;;;;;;;0.13;0.13;;;9.10;99.90;;;;;;5077925;28;20549;-81
2023/03/31 07:43:46;;;;;;;0.45;0.10;;;9.20;99.90;;;;;;5077382;28;20044;-81
2023/03/31 07:46:21;;;;;;;0.57;0.13;;;9.20;99.90;;;;;;5094656;28;20045;-81
2023/03/31 07:48:47;;;;;;;0.10;0.00;;;9.20;99.90;;;;;;5112290;28;20493;-82
2023/03/31 07:51:16;;;;;;;0.55;0.55;;;9.20;99.90;;;;;;5112986;28;20106;-81
2023/03/31 07:53:42;;;;;;;0.43;0.20;;;9.20;99.90;;;;;;5112684;28;20036;-82
2023/03/31 07:56:08;;;;;;;2.53;0.55;;;9.30;99.90;;;;;;5095215;28;20055;-82
2023/03/31 07:58:34;;;;;;;0.00;0.00;;;9.20;99.90;;;;;;5112888;28;20051;-83
2023/03/31 08:01:00;;;;;;;0.30;0.30;;;9.30;99.90;;;;;;5112712;28;20304;-81
2023/03/31 08:03:26;;;;;;;0.00;0.00;;;9.30;99.90;;;;;;5112810;28;20501;-81
2023/03/31 08:05:52;;;;;;;0.08;0.03;;;9.30;99.90;;;;;;5112923;28;20098;-81
2023/03/31 08:08:20;;;;;;;0.30;0.20;;;9.30;99.90;;;;;;5115278;28;20131;-79
2023/03/31 08:10:46;;;;;;;0.20;0.20;;;9.40;99.90;;;;;;5098040;28;20051;-81
2023/03/31 08:13:11;;;;;;;1.08;0.40;;;9.40;99.90;;;;;;5098336;28;20134;-81
2023/03/31 08:15:37;;;;;;;0.37;0.20;;;9.40;99.90;;;;;;5098131;28;20127;-81
2023/03/31 08:18:04;;;;;;;0.20;0.20;;;9.50;99.90;;;;;;5098011;28;20043;-81
2023/03/31 08:20:30;;;;;;;0.35;0.30;;;9.50;99.90;;;;;;5114795;28;20570;-83
2023/03/31 08:22:56;;;;;;;0.10;0.10;;;9.40;99.90;;;;;;5081534;28;20055;-82
2023/03/31 08:25:22;;;;;;;0.10;0.10;;;9.50;99.90;;;;;;5116309;28;20382;-81
2023/03/31 08:27:49;;;;;;;2.53;0.17;;;9.50;99.90;;;;;;5097671;28;20036;-81
2023/03/31 08:30:17;;;;;;;0.08;0.00;;;9.50;99.90;;;;;;5097276;28;20131;-82
2023/03/31 08:32:43;;;;;;;0.38;0.13;;;9.50;99.90;;;;;;5115500;28;20504;-81
2023/03/31 08:35:09;;;;;;;0.20;0.20;;;9.60;99.90;;;;;;5117463;28;20054;-82
2023/03/31 08:37:36;;;;;;;0.00;0.00;;;9.60;99.90;;;;;;5080958;28;20727;-82
2023/03/31 08:40:08;;;;;;;0.10;0.10;;;9.60;99.90;;;;;;5098280;28;20052;-82
2023/03/31 08:42:47;;;;;;;0.20;0.20;;;9.60;99.90;;;;;;5116121;28;20047;-82
2023/03/31 08:45:38;;;;;;;0.10;0.10;;;9.60;99.90;;;;;;5097303;28;20051;-82
2023/03/31 08:48:06;;;;;;;0.30;0.10;;;9.70;99.90;;;;;;5115706;28;20101;-81
2023/03/31 08:50:35;;;;;;;0.52;0.13;;;9.70;99.90;;;;;;5097680;28;20390;-81
2023/03/31 08:53:06;;;;;;;0.13;0.13;;;9.70;99.90;;;;;;5081316;28;20398;-82
2023/03/31 08:55:53;;;;;;;0.00;0.00;;;9.70;99.90;;;;;;5116065;28;20050;-81
2023/03/31 08:58:33;;;;;;;0.80;0.50;;;9.70;99.90;;;;;;5097911;28;20048;-82
2023/03/31 09:01:23;;;;;;;0.00;0.00;;;9.70;99.90;;;;;;5097789;28;20043;-81
2023/03/31 09:04:01;;;;;;;0.00;0.00;;;9.70;99.90;;;;;;5115727;28;20047;-81
2023/03/31 09:06:37;;;;;;;0.40;0.40;;;9.70;99.90;;;;;;5098010;28;20047;-81
2023/03/31 09:09:07;;;;;;;0.65;0.20;;;9.80;99.90;;;;;;5116035;28;20043;-83
2023/03/31 09:11:52;;;;;;;0.88;0.88;;;9.80;99.90;;;;;;5096988;28;20056;-81
2023/03/31 09:14:35;;;;;;;0.20;0.20;;;9.80;99.90;;;;;;5115412;28;20130;-80
2023/03/31 09:17:15;;;;;;;0.05;0.05;;;9.80;99.90;;;;;;5114803;28;20047;-81
2023/03/31 09:19:58;;;;;;;1.33;0.43;;;9.80;99.90;;;;;;5096883;28;20557;-81
2023/03/31 09:22:30;;;;;;;0.20;0.20;;;9.90;99.90;;;;;;5097372;28;20130;-81
2023/03/31 09:25:22;;;;;;;0.10;0.10;;;9.90;99.90;;;;;;5115321;28;20131;-81
2023/03/31 09:27:51;;;;;;;0.10;0.10;;;10.00;99.90;;;;;;5114997;28;20105;-81
2023/03/31 09:30:25;;;;;;;0.55;0.30;;;10.00;99.90;;;;;;5115634;28;20055;-81
2023/03/31 09:33:14;;;;;;;0.40;0.20;;;10.10;99.90;;;;;;5096954;28;20424;-81
2023/03/31 09:35:40;;;;;;;0.50;0.15;;;10.10;99.90;;;;;;5080586;28;20052;-90
2023/03/31 09:38:08;;;;;;;0.43;0.30;;;10.20;99.90;;;;;;5115390;28;20077;-82
2023/03/31 09:40:34;;;;;;;0.10;0.10;;;10.20;99.90;;;;;;5097234;28;20401;-81
2023/03/31 09:43:14;;;;;;;0.47;0.20;;;10.20;99.90;;;;;;5096933;28;20048;-82
2023/03/31 09:45:40;;;;;;;0.20;0.20;;;10.20;99.90;;;;;;5115349;28;20048;-81
2023/03/31 09:48:22;;;;;;;0.00;0.00;;;10.30;99.90;;;;;;5115055;28;20048;-81
2023/03/31 09:51:06;;;;;;;0.25;0.10;;;10.40;99.90;;;;;;5114824;28;20082;-82
2023/03/31 09:53:52;;;;;;;0.43;0.20;;;10.40;99.90;;;;;;5097440;28;20138;-81
2023/03/31 09:56:52;;;;;;;0.05;0.05;;;10.40;99.90;;;;;;5097363;28;20051;-82
2023/03/31 09:59:28;;;;;;;0.35;0.30;;;10.40;99.90;;;;;;5097158;28;20043;-82
2023/03/31 10:01:57;;;;;;;0.13;0.10;;;10.40;99.90;;;;;;5114822;28;20035;-81
2023/03/31 10:04:26;;;;;;;0.20;0.20;;;10.30;99.90;;;;;;5096880;28;20051;-81
2023/03/31 10:06:54;;;;;;;0.10;0.00;;;10.30;99.90;;;;;;5096353;28;20048;-82
2023/03/31 10:09:25;;;;;;;0.08;0.08;;;10.30;99.90;;;;;;5096872;28;20048;-82
2023/03/31 10:12:01;;;;;;;0.22;0.10;;;10.40;99.90;;;;;;5079626;28;20647;-81
2023/03/31 10:14:44;;;;;;;0.35;0.30;;;10.40;99.90;;;;;;5097016;28;20130;-81
2023/03/31 10:17:15;;;;;;;0.00;0.00;;;10.40;99.90;;;;;;5096248;28;20054;-81
2023/03/31 10:19:56;;;;;;;0.10;0.08;;;10.40;99.90;;;;;;5096858;28;20052;-81
2023/03/31 10:22:22;;;;;;;0.65;0.10;;;10.40;99.90;;;;;;5114855;28;20130;-82
2023/03/31 10:24:50;;;;;;;0.10;0.00;;;10.50;99.90;;;;;;5079470;28;20143;-82
2023/03/31 10:27:28;;;;;;;0.22;0.22;;;10.50;99.90;;;;;;5096717;28;20047;-81
2023/03/31 10:29:57;;;;;;;0.30;0.13;;;10.50;99.90;;;;;;5095335;28;20052;-82
2023/03/31 10:32:27;;;;;;;0.10;0.10;;;10.60;99.90;;;;;;5113859;28;20050;-82
2023/03/31 10:34:55;;;;;;;0.10;0.10;;;10.60;99.90;;;;;;5079387;28;20051;-82
2023/03/31 10:37:24;;;;;;;0.20;0.10;;;10.70;99.90;;;;;;5114116;28;20052;-82
2023/03/31 10:40:00;;;;;;;0.10;0.10;;;10.80;99.90;;;;;;5113913;28;20136;-82
2023/03/31 10:42:27;;;;;;;0.40;0.20;;;10.80;99.90;;;;;;5114300;28;20051;-81
2023/03/31 10:45:13;;;;;;;0.00;0.00;;;11.00;99.90;;;;;;5113798;28;20043;-82
2023/03/31 10:47:40;;;;;;;0.52;0.40;;;11.10;99.90;;;;;;5113821;28;20039;-81
2023/03/31 10:50:12;;;;;;;;;;;11.30;99.90;;;;;;5112994;28;20048;-82
2023/03/31 10:52:46;;;;;;;0.20;0.17;;;11.40;99.90;;;;;;5113869;28;20369;-82
2023/03/31 10:55:17;;;;;;;0.15;0.10;;;11.60;99.90;;;;;;5113810;28;20048;-82
2023/03/31 10:57:55;;;;;;;0.50;0.40;;;11.70;99.90;;;;;;5095937;28;20051;-82
2023/03/31 11:00:31;;;;;;;0.10;0.10;;;11.90;99.90;;;;;;5096014;28;20054;-83
2023/03/31 11:03:15;;;;;;;0.35;0.10;;;12.00;99.90;;;;;;5113543;28;20051;-82
2023/03/31 11:06:12;;;;;;;0.98;0.28;;;12.10;99.90;;;;;;5096046;28;20051;-82
2023/03/31 11:08:48;;;;;;;0.10;0.10;;;12.20;99.90;;;;;;5113887;28;20035;-82
2023/03/31 11:11:20;;;;;;;0.10;0.10;;;12.30;99.90;;;;;;5095430;28;20057;-82
2023/03/31 11:14:12;;;;;;;0.17;0.15;;;11.80;99.90;;;;;;5095879;28;20039;-82
2023/03/31 11:16:37;;;;;;;0.00;0.00;;;12.20;99.90;;;;;;5096116;28;20075;-82
2023/03/31 11:19:25;;;;;;;0.10;0.10;;;12.20;99.90;;;;;;5095275;28;20453;-82
2023/03/31 11:22:28;;;;;;;0.20;0.20;;;12.00;99.90;;;;;;5095828;28;20055;-82
2023/03/31 11:25:07;;;;;;;0.47;0.22;;;11.90;99.90;;;;;;5088909;28;20052;-81
2023/03/31 11:27:55;;;;;;;0.28;0.28;;;11.80;99.90;;;;;;5113601;28;20134;-81
2023/03/31 11:30:50;;;;;;;0.28;0.28;;;11.60;99.90;;;;;;5094766;28;20055;-81
2023/03/31 11:33:44;;;;;;;0.10;0.05;;;11.50;99.90;;;;;;5113220;28;20058;-81
2023/03/31 11:36:27;;;;;;;0.15;0.15;;;11.40;99.90;;;;;;5095293;28;20468;-81
2023/03/31 11:39:07;;;;;;;0.13;0.10;;;11.40;99.90;;;;;;5113424;28;20048;-81
2023/03/31 11:41:53;;;;;;;0.20;0.20;;;11.40;99.90;;;;;;5095503;28;20122;-81
2023/03/31 11:44:22;;;;;;;0.70;0.20;;;11.40;99.90;;;;;;5099082;28;20083;-81
2023/03/31 11:46:53;;;;;;;0.65;0.38;;;11.40;99.90;;;;;;5117312;28;20043;-81
2023/03/31 11:49:27;;;;;;;0.20;0.08;;;11.50;99.90;;;;;;5099248;28;20047;-81
2023/03/31 11:52:00;;;;;;;0.00;0.00;;;11.50;99.90;;;;;;5099440;28;20051;-81
2023/03/31 11:54:37;;;;;;;0.00;0.00;;;11.50;99.90;;;;;;5099512;28;20105;-81
2023/03/31 11:57:24;;;;;;;0.20;0.10;;;11.60;99.90;;;;;;5117000;28;20059;-81
2023/03/31 11:59:57;;;;;;;0.65;0.25;;;11.60;99.90;;;;;;5099350;28;20044;-82
2023/03/31 12:02:39;;;;;;;0.30;0.20;;;11.80;99.90;;;;;;5116620;28;20043;-81
2023/03/31 12:05:08;;;;;;;0.20;0.10;;;11.90;99.90;;;;;;5098467;28;20036;-82
2023/03/31 12:08:09;;;;;;;0.20;0.13;;;12.00;99.90;;;;;;5081437;28;20105;-83
2023/03/31 12:10:43;;;;;;;0.30;0.10;;;12.00;99.90;;;;;;5075318;28;20451;-82
2023/03/31 12:13:28;;;;;;;0.75;0.43;;;12.10;99.90;;;;;;5116239;28;20457;-83
2023/03/31 12:16:16;;;;;;;0.15;0.08;;;12.00;99.90;;;;;;5098794;28;20385;-81
2023/03/31 12:19:17;;;;;;;0.17;0.10;;;12.10;99.90;;;;;;5116461;28;20040;-86
2023/03/31 12:22:06;;;;;;;0.20;0.20;;;12.00;99.90;;;;;;5095213;28;20067;-85
2023/03/31 12:24:33;;;;;;;0.55;0.20;;;12.00;99.90;;;;;;5081487;28;20039;-83
2023/03/31 12:27:06;;;;;;;0.13;0.13;;;12.00;99.90;;;;;;5116441;28;20119;-82
2023/03/31 12:29:40;;;;;;;0.10;0.10;;;12.00;99.90;;;;;;5097986;28;20489;-83
2023/03/31 12:32:16;;;;;;;0.17;0.15;;;12.00;99.90;;;;;;5115998;28;20048;-88
2023/03/31 12:34:50;;;;;;;0.35;0.20;;;12.00;99.90;;;;;;5116020;28;20469;-82
2023/03/31 12:38:00;;;;;;;0.05;0.05;;;12.10;99.90;;;;;;5098106;28;20469;-82
2023/03/31 12:40:57;;;;;;;0.28;0.28;;;12.20;99.90;;;;;;5092796;28;20047;-83
2023/03/31 12:44:01;;;;;;;0.43;0.10;;;12.30;99.90;;;;;;5080719;28;20131;-82
2023/03/31 12:46:45;;;;;;;0.17;0.17;;;12.40;99.90;;;;;;5096966;28;20335;-82
2023/03/31 12:49:21;;;;;;;0.20;0.20;;;12.40;99.90;;;;;;5080803;28;20377;-82
2023/03/31 12:52:08;;;;;;;0.13;0.13;;;12.50;99.90;;;;;;5097854;28;20039;-82
2023/03/31 12:55:24;;;;;;;0.85;0.22;;;12.60;99.90;;;;;;5114895;28;20051;-82
2023/03/31 12:57:50;;;;;;;0.35;0.20;;;12.70;99.90;;;;;;5063036;28;20043;-82
2023/03/31 13:00:24;;;;;;;0.20;0.10;;;12.70;99.90;;;;;;5080515;28;20044;-82
2023/03/31 13:03:13;;;;;;;0.22;0.22;;;12.70;99.90;;;;;;5097547;28;20044;-85
2023/03/31 13:05:46;;;;;;;0.20;0.10;;;12.60;99.90;;;;;;5083477;28;20047;-82
2023/03/31 13:08:50;;;;;;;0.20;0.20;;;12.50;99.90;;;;;;5115229;28;20043;-83
2023/03/31 13:11:17;;;;;;;0.10;0.10;;;12.50;99.90;;;;;;5080191;28;20043;-82
2023/03/31 13:13:58;;;;;;;0.15;0.15;;;12.40;99.90;;;;;;5080792;28;20401;-83
2023/03/31 13:16:24;;;;;;;0.10;0.10;;;12.40;99.90;;;;;;5114966;28;20047;-83
2023/03/31 13:18:52;;;;;;;1.25;0.30;;;12.30;99.90;;;;;;5097160;28;20169;-81
2023/03/31 13:21:18;;;;;;;0.40;0.20;;;12.20;99.90;;;;;;5096923;28;20050;-81
2023/03/31 13:23:47;;;;;;;0.20;0.20;;;12.00;99.90;;;;;;5115196;28;20486;-84
2023/03/31 13:26:39;;;;;;;0.10;0.10;;;11.90;99.90;;;;;;5096881;28;20790;-86